Latest Weather Observations for Munglinup West

IDW60801

Issued at 8:32 am WST Saturday 31 January 2015 (issued every 30 minutes, with the page automatically refreshed every 10 minutes)

About weather observations | Map of weather stations | Latest weather observations for WA | Other Formats
Station Details ID: 012044 Name: MUNGLINUP WEST Lat: -33.55 Lon: 120.70 Height: 220.0 m
Data from the previous 72 hours. | See also: Recent months at Munglinup West
Date/Time
WST
Temp
°C
App
Temp
°C
Dew
Point
Rel
Hum
%
Delta-T
°C
Wind Press
QNH
hPa
Press
MSL
hPa
Rain
since 9 am
mm
Dir
 
Spd
km/h
Gust
km/h
Spd
kts
Gust
kts
31/08:30am 21.1 16.6 11.4 54 5.4 ESE 26 35 14 19 1021.0 1020.1 0.0
31/08:00am 20.8 16.2 11.2 54 5.3 ESE 26 43 14 23 1020.9 1020.0 0.0
31/07:30am 19.4 14.2 11.7 61 4.3 ESE 30 41 16 22 1020.7 1019.8 0.0
31/07:00am 18.4 15.8 13.3 72 2.9 E 19 28 10 15 1020.5 1019.6 0.0
31/06:30am 16.2 14.8 13.5 84 1.5 ESE 13 17 7 9 1020.4 1019.5 0.0
31/06:00am 16.0 15.3 14.4 90 0.9 ESE 11 17 6 9 1020.2 1019.3 0.0
31/05:30am 14.4 13.8 13.4 94 0.6 ESE 9 11 5 6 1019.9 1019.0 0.0
31/05:00am 14.1 13.3 13.0 93 0.6 E 9 11 5 6 1019.5 1018.7 0.0
31/04:30am 14.5 13.9 13.4 93 0.6 E 9 11 5 6 1019.2 1018.4 0.0
31/04:00am 14.6 14.0 13.5 93 0.6 ENE 9 11 5 6 1019.2 1018.4 0.0
31/03:30am 14.3 13.5 13.0 92 0.7 E 9 11 5 6 1019.0 1018.2 0.0
31/03:00am 14.8 14.3 13.8 94 0.6 E 9 13 5 7 1019.0 1018.2 0.0
31/02:30am 13.3 12.8 12.2 93 0.6 ESE 6 7 3 4 1019.0 1018.2 0.0
31/02:00am 13.6 13.0 12.3 92 0.7 ESE 7 9 4 5 1018.9 1018.1 0.0
31/01:30am 14.2 13.2 12.4 89 1.0 ESE 9 11 5 6 1019.2 1018.4 0.0
31/01:00am 15.0 13.9 13.0 88 1.1 ESE 11 17 6 9 1019.3 1018.5 0.0
31/12:30am 15.2 13.7 13.1 87 1.2 ESE 13 17 7 9 1019.4 1018.6 0.0
31/12:00am 15.4 13.5 13.1 86 1.3 ESE 15 20 8 11 1019.5 1018.7 0.0
 
Date/Time
WST
Temp
°C
App
Temp
°C
Dew
Point
Rel
Hum
%
Delta-T
°C
Wind Press
QNH
hPa
Press
MSL
hPa
Rain
since 9 am
mm
Dir
 
Spd
km/h
Gust
km/h
Spd
kts
Gust
kts
30/11:30pm 15.7 13.9 13.4 86 1.3 ESE 15 22 8 12 1019.6 1018.8 0.0
30/11:00pm 16.1 14.1 13.8 86 1.3 ESE 17 22 9 12 1019.9 1019.0 0.0
30/10:30pm 16.1 14.2 14.1 88 1.1 ESE 17 22 9 12 1019.9 1019.0 0.0
30/10:00pm 16.4 14.2 14.4 88 1.2 ESE 19 24 10 13 1019.9 1019.0 0.0
30/09:30pm 16.6 14.1 14.2 86 1.4 SE 20 28 11 15 1019.8 1018.9 0.0
30/09:00pm 16.9 13.8 14.4 85 1.4 SE 24 35 13 19 1019.5 1018.7 0.0
30/08:30pm 17.0 13.7 13.9 82 1.8 SE 24 32 13 17 1019.3 1018.5 0.0
30/08:00pm 17.1 13.6 13.4 79 2.1 SE 24 32 13 17 1019.0 1018.2 0.0
30/07:30pm 17.4 13.4 13.1 76 2.4 SE 26 33 14 18 1018.4 1017.6 0.0
30/07:00pm 18.1 13.3 13.0 72 2.9 SE 30 37 16 20 1018.1 1017.3 0.0
30/06:30pm 19.4 15.4 13.1 67 3.6 SE 26 37 14 20 1017.8 1016.9 0.0
30/06:00pm 20.3 16.5 13.7 66 3.8 ESE 26 39 14 21 1017.5 1016.6 0.0
30/05:30pm 21.1 16.7 14.0 64 4.2 SE 30 41 16 22 1017.2 1016.3 0.0
30/05:00pm 21.7 16.8 13.6 60 4.7 SE 32 43 17 23 1017.2 1016.3 0.0
30/04:30pm 24.4 19.6 13.0 49 6.7 SE 30 43 16 23 1017.2 1016.3 0.0
30/04:00pm 23.8 19.3 13.9 54 5.8 SE 30 43 16 23 1017.1 1016.2 0.0
30/03:30pm 23.4 18.5 13.6 54 5.8 SE 32 43 17 23 1017.1 1016.2 0.0
30/03:00pm 23.9 19.3 13.4 51 6.2 SE 30 43 16 23 1017.1 1016.2 0.0
30/02:30pm 25.2 20.5 13.1 47 7.1 SE 30 41 16 22 1016.9 1016.0 0.0
30/02:00pm 25.0 20.6 12.9 47 7.1 ESE 28 37 15 20 1017.0 1016.1 0.0
30/01:30pm 27.3 22.8 12.5 40 8.7 SE 28 35 15 19 1017.0 1016.1 0.0
30/01:00pm 27.0 22.3 11.9 39 8.8 SE 28 39 15 21 1017.2 1016.3 0.0
30/12:30pm 26.7 23.3 12.4 41 8.4 SE 22 32 12 17 1017.4 1016.5 0.0
30/12:00pm 27.5 23.8 12.7 40 8.7 SE 24 35 13 19 1017.6 1016.7 0.0
30/11:30am 27.7 24.7 12.5 39 8.9 SE 20 32 11 17 1017.6 1016.7 0.0
30/11:00am 27.6 25.0 12.0 38 9.1 ESE 17 30 9 16 1017.9 1017.1 0.0
30/10:30am 26.4 23.7 13.5 45 7.7 SE 20 30 11 16 1018.1 1017.3 0.0
30/10:00am 25.5 22.7 14.3 50 6.7 SE 22 30 12 16 1018.3 1017.5 0.0
30/09:30am 24.5 22.8 15.7 58 5.4 SE 19 28 10 15 1018.5 1017.7 0.0
30/09:00am 21.8 19.7 14.7 64 4.2 ESE 19 28 10 15 1018.4 1017.6 0.0
30/08:30am 20.9 19.3 15.0 69 3.5 ESE 17 24 9 13 1018.5 1017.7 0.0
30/08:00am 19.8 17.3 15.2 75 2.7 E 22 30 12 16 1018.2 1017.4 0.0
30/07:30am 19.1 16.3 15.4 79 2.2 E 24 37 13 20 1017.9 1017.1 0.0
30/07:00am 17.8 15.2 15.8 88 1.2 E 24 32 13 17 1017.5 1016.6 0.0
30/06:30am 16.4 13.7 15.6 95 0.5 E 24 33 13 18 1017.3 1016.4 0.0
30/06:00am 15.9 13.8 15.3 96 0.4 E 20 26 11 14 1017.2 1016.3 0.0
30/05:30am 15.3 13.6 14.8 97 0.3 ESE 17 24 9 13 1016.7 1015.8 0.0
30/05:00am 14.8 12.5 14.2 96 0.3 E 19 26 10 14 1016.2 1015.3 0.0
30/04:30am 14.7 12.6 13.7 94 0.6 ESE 17 24 9 13 1015.8 1014.9 0.0
30/04:00am 14.7 12.5 13.4 92 0.7 ESE 17 22 9 12 1015.2 1014.3 0.0
30/03:30am 14.6 13.7 12.5 87 1.2 SSE 9 11 5 6 1015.2 1014.3 0.0
30/03:00am 16.4 14.9 13.1 81 1.9 E 13 17 7 9 1014.5 1013.7 0.0
30/02:30am 16.6 15.1 13.1 80 2.0 ENE 13 15 7 8 1014.2 1013.4 0.0
30/02:00am 16.8 14.9 13.1 79 2.1 ENE 15 17 8 9 1014.0 1013.2 0.0
30/01:30am 17.2 15.6 12.9 76 2.4 NE 13 17 7 9 1013.9 1013.1 0.0
30/01:00am 18.5 16.4 13.6 73 2.8 ENE 17 20 9 11 1013.7 1012.8 0.0
30/12:30am 19.2 17.1 13.6 70 3.2 ENE 17 24 9 13 1013.7 1012.8 0.0
30/12:00am 19.9 17.4 13.6 67 3.6 ENE 19 24 10 13 1013.8 1012.9 0.0
 
Date/Time
WST
Temp
°C
App
Temp
°C
Dew
Point
Rel
Hum
%
Delta-T
°C
Wind Press
QNH
hPa
Press
MSL
hPa
Rain
since 9 am
mm
Dir
 
Spd
km/h
Gust
km/h
Spd
kts
Gust
kts
29/11:30pm 20.3 17.3 13.7 66 3.8 ENE 22 30 12 16 1013.8 1012.9 0.0
29/11:00pm 20.1 17.8 14.2 69 3.5 ENE 19 24 10 13 1013.7 1012.8 0.0
29/10:30pm 20.1 17.9 14.9 72 3.1 ENE 20 28 11 15 1013.7 1012.8 0.0
29/10:00pm 20.5 18.1 15.3 72 3.1 E 22 30 12 16 1013.7 1012.8 0.0
29/09:30pm 21.6 19.1 14.0 62 4.5 E 20 28 11 15 1013.8 1012.9 0.0
29/09:00pm 22.6 19.5 12.3 52 5.9 E 20 30 11 16 1013.6 1012.7 0.0
29/08:30pm 22.5 19.7 13.3 56 5.4 E 20 32 11 17 1013.4 1012.5 0.0
29/08:00pm 22.8 20.2 13.8 57 5.3 ESE 20 26 11 14 1013.0 1012.1 0.0
29/07:30pm 23.8 20.0 12.4 48 6.6 ESE 24 30 13 16 1012.4 1011.5 0.0
29/07:00pm 24.8 21.2 11.7 44 7.5 ESE 22 28 12 15 1012.2 1011.3 0.0
29/06:30pm 27.1 22.6 8.5 31 10.2 ESE 22 32 12 17 1011.9 1011.0 0.0
29/06:00pm 29.5 24.1 6.2 23 12.5 SE 24 32 13 17 1011.7 1010.8 0.0
29/05:30pm 30.8 24.1 3.8 18 14.0 SE 28 37 15 20 1011.4 1010.5 0.0
29/05:00pm 32.0 24.3 2.1 15 15.2 SE 32 43 17 23 1011.1 1010.2 0.0
29/04:30pm 33.3 26.6 5.8 18 14.9 SE 30 39 16 21 1010.9 1010.0 0.0
29/04:00pm 34.4 27.1 -0.3 11 17.2 SE 28 39 15 21 1011.0 1010.1 0.0
29/03:30pm 34.6 27.1 -4.4 8 18.1 SE 26 43 14 23 1011.0 1010.1 0.0
29/03:00pm 33.2 25.8 -3.9 9 17.2 SSE 26 37 14 20 1011.1 1010.2 0.0
29/02:30pm 35.9 29.5 0.9 11 17.8 SSE 24 39 13 21 1011.2 1010.3 0.0
29/02:00pm 35.8 29.6 6.1 16 16.4 SSE 28 41 15 22 1011.3 1010.4 0.0
29/01:30pm 35.0 28.8 7.9 19 15.3 SSE 30 41 16 22 1011.2 1010.3 0.0
29/01:23pm 35.4 29.9 7.5 18 15.7 S 26 39 14 21 1011.1 1010.2 0.0
29/01:00pm 36.9 32.9 0.3 10 18.6 S 11 19 6 10 1011.4 1010.5 0.0
29/12:30pm 35.8 31.7 -0.5 10 18.0 SE 11 20 6 11 1011.7 1010.8 0.0
29/12:00pm 36.0 32.1 0.9 11 17.9 ENE 11 22 6 12 1011.8 1010.9 0.0
29/11:30am 34.4 31.0 -0.3 11 17.2 ESE 7 17 4 9 1012.2 1011.3 0.0
29/11:00am 33.6 31.2 5.2 17 15.3 NNE 7 20 4 11 1012.4 1011.5 0.0
29/10:30am 32.7 30.0 8.9 23 13.5 NE 13 22 7 12 1012.8 1011.9 0.0
29/10:00am 29.8 28.0 10.9 31 10.9 NNE 11 22 6 12 1013.1 1012.2 0.0
29/09:30am 28.6 26.0 10.8 33 10.2 NNE 15 24 8 13 1013.1 1012.2 0.0
29/09:00am 27.9 24.8 11.5 36 9.5 NNE 19 28 10 15 1013.1 1012.2 0.0
29/08:30am 27.0 23.2 12.3 40 8.6 NNE 24 35 13 19 1012.9 1012.0 0.0
29/08:00am 25.3 20.9 12.9 46 7.3 NNE 28 39 15 21 1012.8 1011.9 0.0
29/07:30am 22.9 18.6 13.1 54 5.7 NNE 28 39 15 21 1012.8 1011.9 0.0
29/07:00am 20.8 16.0 13.0 61 4.5 NNE 30 37 16 20 1012.6 1011.7 0.0
29/06:30am 19.3 15.3 13.0 67 3.6 NE 26 37 14 20 1012.3 1011.4 0.0
29/06:00am 18.1 13.9 12.3 69 3.3 NE 26 37 14 20 1012.1 1011.2 0.0
29/05:30am 17.3 13.3 11.8 70 3.0 NE 24 33 13 18 1012.0 1011.1 0.0
29/05:00am 17.3 13.2 11.3 68 3.3 NE 24 32 13 17 1011.6 1010.7 0.0
29/04:30am 17.5 13.2 10.6 64 3.7 NE 24 30 13 16 1011.4 1010.5 0.0
29/04:00am 18.0 13.5 10.1 60 4.2 NE 24 35 13 19 1011.2 1010.3 0.0
29/03:30am 18.2 13.2 9.5 57 4.6 NE 26 33 14 18 1010.9 1010.0 0.0
29/03:00am 18.1 13.9 8.4 53 5.1 NE 20 26 11 14 1011.0 1010.1 0.0
29/02:30am 18.5 14.2 7.9 50 5.5 NE 20 26 11 14 1010.9 1010.0 0.0
29/02:00am 18.8 14.5 7.9 49 5.6 NE 20 28 11 15 1011.0 1010.1 0.0
29/01:30am 19.3 14.7 8.3 49 5.8 NE 22 30 12 16 1011.0 1010.1 0.0
29/01:00am 19.6 15.5 8.6 49 5.8 NE 20 28 11 15 1011.1 1010.2 0.0
29/12:30am 20.2 15.9 9.2 49 5.9 NE 22 32 12 17 1011.3 1010.4 0.0
29/12:00am 21.1 16.6 10.0 49 6.1 ENE 24 33 13 18 1011.5 1010.6 0.0
 
Date/Time
WST
Temp
°C
App
Temp
°C
Dew
Point
Rel
Hum
%
Delta-T
°C
Wind Press
QNH
hPa
Press
MSL
hPa
Rain
since 9 am
mm
Dir
 
Spd
km/h
Gust
km/h
Spd
kts
Gust
kts
28/11:30pm 21.6 17.0 11.0 51 5.9 ENE 26 35 14 19 1011.5 1010.6 0.0
28/11:00pm 21.8 18.4 12.4 55 5.4 ENE 22 28 12 15 1011.6 1010.7 0.0
28/10:30pm 22.3 18.5 12.5 53 5.6 ENE 24 32 13 17 1011.6 1010.7 0.0
28/10:00pm 22.9 18.6 12.2 51 6.1 E 26 35 14 19 1011.5 1010.6 0.0
28/09:30pm 23.5 19.6 12.2 49 6.5 E 24 33 13 18 1011.6 1010.7 0.0
28/09:00pm 24.1 20.9 11.8 46 7.0 E 20 28 11 15 1011.5 1010.6 0.0
28/08:30pm 25.4 21.1 11.9 43 7.8 E 26 37 14 20 1011.4 1010.5 0.0
28/08:00pm 25.4 22.7 13.6 48 7.0 E 20 28 11 15 1011.1 1010.2 0.0
28/07:30pm 25.9 23.3 13.7 47 7.3 E 20 30 11 16 1010.9 1010.0 0.0
28/07:00pm 27.3 23.8 12.1 39 8.9 ESE 22 30 12 16 1010.6 1009.7 0.0
28/06:30pm 28.9 25.4 12.3 36 9.8 ESE 22 30 12 16 1010.4 1009.5 0.0
28/06:00pm 30.8 26.4 11.7 31 11.3 ESE 26 33 14 18 1010.0 1009.2 0.0
28/05:30pm 32.2 26.8 10.8 27 12.5 ESE 30 41 16 22 1009.6 1008.7 0.0
28/05:00pm 33.3 28.0 10.0 24 13.5 SE 28 37 15 20 1009.7 1008.8 0.0
28/04:30pm 34.3 28.4 7.4 19 15.0 SE 28 37 15 20 1009.9 1009.1 0.0
28/04:00pm 34.8 29.1 8.5 20 15.0 SE 28 43 15 23 1010.3 1009.4 0.0
28/03:30pm 36.4 31.0 2.5 12 17.7 E 20 30 11 16 1010.3 1009.4 0.0
28/03:00pm 36.4 32.1 1.2 11 18.1 SSE 13 26 7 14 1010.6 1009.7 0.0
28/02:30pm 36.5 30.9 1.3 11 18.1 E 20 35 11 19 1010.8 1009.9 0.0
28/02:00pm 36.9 31.9 1.6 11 18.3 ESE 17 28 9 15 1011.2 1010.3 0.0
28/01:30pm 35.8 30.3 2.0 12 17.5 E 20 35 11 19 1011.4 1010.5 0.0
28/01:00pm 35.9 32.0 3.2 13 17.3 ESE 13 24 7 13 1011.7 1010.8 0.0
28/12:30pm 35.2 31.0 3.7 14 16.7 ENE 15 28 8 15 1011.9 1011.0 0.0
28/12:00pm 34.8 30.9 3.4 14 16.5 ENE 13 28 7 15 1012.2 1011.3 0.0
28/11:30am 33.6 29.8 6.0 18 15.0 NE 15 26 8 14 1012.6 1011.7 0.0
28/11:00am 32.9 29.5 9.0 23 13.6 NE 17 30 9 16 1012.8 1011.9 0.0
28/10:30am 31.8 28.1 9.3 25 12.8 NNE 19 28 10 15 1013.2 1012.3 0.0
28/10:00am 30.5 26.5 10.5 29 11.5 NNE 22 32 12 17 1013.2 1012.3 0.0
28/09:30am 28.6 23.7 9.8 31 10.6 NNE 26 37 14 20 1013.2 1012.3 0.0
28/09:00am 27.6 23.2 10.3 34 9.8 NNE 24 35 13 19 1013.5 1012.6 0.0

Other Formats:

Comma delimited format used in spreadsheet applications
http://www.bom.gov.au/fwo/IDW60801/IDW60801.95644.axf

JavaScript Object Notation format (JSON) in row-major order
http://www.bom.gov.au/fwo/IDW60801/IDW60801.95644.json